sensor_id;sensor_type;location;lat;lon;timestamp;P1;durP1;ratioP1;P2;durP2;ratioP2
66593;SDS011;53450;42.584;23.366;2022-07-04T00:01:04;15.15;;;6.50;;
66593;SDS011;53450;42.584;23.366;2022-07-04T00:03:29;7.93;;;6.32;;
66593;SDS011;53450;42.584;23.366;2022-07-04T00:05:55;11.07;;;6.50;;
66593;SDS011;53450;42.584;23.366;2022-07-04T00:08:20;18.15;;;6.50;;
66593;SDS011;53450;42.584;23.366;2022-07-04T00:10:46;14.18;;;6.03;;
66593;SDS011;53450;42.584;23.366;2022-07-04T00:13:12;14.05;;;6.53;;
66593;SDS011;53450;42.584;23.366;2022-07-04T00:15:37;11.38;;;6.50;;
66593;SDS011;53450;42.584;23.366;2022-07-04T00:18:03;9.57;;;6.07;;
66593;SDS011;53450;42.584;23.366;2022-07-04T00:20:29;10.05;;;5.93;;
66593;SDS011;53450;42.584;23.366;2022-07-04T00:22:54;17.17;;;6.53;;
66593;SDS011;53450;42.584;23.366;2022-07-04T00:25:20;8.27;;;6.13;;
66593;SDS011;53450;42.584;23.366;2022-07-04T00:27:45;9.35;;;5.97;;
66593;SDS011;53450;42.584;23.366;2022-07-04T00:30:12;9.05;;;5.97;;
66593;SDS011;53450;42.584;23.366;2022-07-04T00:32:37;12.48;;;6.70;;
66593;SDS011;53450;42.584;23.366;2022-07-04T00:35:04;14.88;;;6.10;;
66593;SDS011;53450;42.584;23.366;2022-07-04T00:37:52;13.27;;;6.18;;
66593;SDS011;53450;42.584;23.366;2022-07-04T00:40:17;9.88;;;5.93;;
66593;SDS011;53450;42.584;23.366;2022-07-04T00:42:43;9.75;;;6.25;;
66593;SDS011;53450;42.584;23.366;2022-07-04T00:45:09;11.68;;;6.25;;
66593;SDS011;53450;42.584;23.366;2022-07-04T00:47:34;12.35;;;6.65;;
66593;SDS011;53450;42.584;23.366;2022-07-04T00:50:00;10.25;;;6.97;;
66593;SDS011;53450;42.584;23.366;2022-07-04T00:52:25;11.52;;;7.80;;
66593;SDS011;53450;42.584;23.366;2022-07-04T00:54:51;12.80;;;7.53;;
66593;SDS011;53450;42.584;23.366;2022-07-04T00:57:17;15.52;;;7.70;;
66593;SDS011;53450;42.584;23.366;2022-07-04T00:59:43;20.17;;;8.13;;
66593;SDS011;53450;42.584;23.366;2022-07-04T01:02:08;19.25;;;8.50;;
66593;SDS011;53450;42.584;23.366;2022-07-04T01:04:34;9.32;;;7.10;;
66593;SDS011;53450;42.584;23.366;2022-07-04T01:07:00;14.70;;;6.93;;
66593;SDS011;53450;42.584;23.366;2022-07-04T01:09:26;11.57;;;6.72;;
66593;SDS011;53450;42.584;23.366;2022-07-04T01:11:51;13.38;;;7.03;;
66593;SDS011;53450;42.584;23.366;2022-07-04T01:14:17;10.95;;;6.70;;
66593;SDS011;53450;42.584;23.366;2022-07-04T01:16:43;10.82;;;6.35;;
66593;SDS011;53450;42.584;23.366;2022-07-04T01:19:09;14.68;;;6.93;;
66593;SDS011;53450;42.584;23.366;2022-07-04T01:21:35;18.60;;;7.15;;
66593;SDS011;53450;42.584;23.366;2022-07-04T01:24:00;13.55;;;7.55;;
66593;SDS011;53450;42.584;23.366;2022-07-04T01:26:27;11.93;;;7.85;;
66593;SDS011;53450;42.584;23.366;2022-07-04T01:28:53;14.13;;;7.93;;
66593;SDS011;53450;42.584;23.366;2022-07-04T01:31:19;8.40;;;7.35;;
66593;SDS011;53450;42.584;23.366;2022-07-04T01:33:44;8.60;;;6.65;;
66593;SDS011;53450;42.584;23.366;2022-07-04T01:36:10;15.55;;;7.88;;
66593;SDS011;53450;42.584;23.366;2022-07-04T01:38:35;17.48;;;8.30;;
66593;SDS011;53450;42.584;23.366;2022-07-04T01:41:01;12.55;;;7.10;;
66593;SDS011;53450;42.584;23.366;2022-07-04T01:43:26;14.07;;;7.45;;
66593;SDS011;53450;42.584;23.366;2022-07-04T01:45:52;11.80;;;7.18;;
66593;SDS011;53450;42.584;23.366;2022-07-04T01:48:18;10.82;;;7.50;;
66593;SDS011;53450;42.584;23.366;2022-07-04T01:50:43;15.90;;;8.45;;
66593;SDS011;53450;42.584;23.366;2022-07-04T01:53:09;15.02;;;8.68;;
66593;SDS011;53450;42.584;23.366;2022-07-04T01:55:34;18.27;;;9.82;;
66593;SDS011;53450;42.584;23.366;2022-07-04T01:58:25;20.38;;;9.23;;
66593;SDS011;53450;42.584;23.366;2022-07-04T02:00:51;19.02;;;10.27;;
66593;SDS011;53450;42.584;23.366;2022-07-04T02:03:36;25.50;;;10.45;;
66593;SDS011;53450;42.584;23.366;2022-07-04T02:06:01;13.93;;;10.00;;
66593;SDS011;53450;42.584;23.366;2022-07-04T02:08:52;17.63;;;10.52;;
66593;SDS011;53450;42.584;23.366;2022-07-04T02:11:37;20.50;;;11.45;;
66593;SDS011;53450;42.584;23.366;2022-07-04T02:14:21;17.38;;;10.82;;
66593;SDS011;53450;42.584;23.366;2022-07-04T02:16:47;17.05;;;11.23;;
66593;SDS011;53450;42.584;23.366;2022-07-04T02:19:12;20.67;;;11.25;;
66593;SDS011;53450;42.584;23.366;2022-07-04T02:21:38;18.65;;;12.45;;
66593;SDS011;53450;42.584;23.366;2022-07-04T02:24:04;28.52;;;13.48;;
66593;SDS011;53450;42.584;23.366;2022-07-04T02:26:30;20.88;;;12.55;;
66593;SDS011;53450;42.584;23.366;2022-07-04T02:28:55;18.67;;;12.38;;
66593;SDS011;53450;42.584;23.366;2022-07-04T02:31:21;15.18;;;12.07;;
66593;SDS011;53450;42.584;23.366;2022-07-04T02:33:47;15.05;;;12.18;;
66593;SDS011;53450;42.584;23.366;2022-07-04T02:36:12;20.50;;;12.40;;
66593;SDS011;53450;42.584;23.366;2022-07-04T02:38:38;19.95;;;12.95;;
66593;SDS011;53450;42.584;23.366;2022-07-04T02:41:04;17.75;;;12.43;;
66593;SDS011;53450;42.584;23.366;2022-07-04T02:43:29;23.23;;;13.38;;
66593;SDS011;53450;42.584;23.366;2022-07-04T02:45:55;13.88;;;12.48;;
66593;SDS011;53450;42.584;23.366;2022-07-04T02:48:20;19.17;;;13.35;;
66593;SDS011;53450;42.584;23.366;2022-07-04T02:50:46;20.25;;;12.88;;
66593;SDS011;53450;42.584;23.366;2022-07-04T02:53:11;19.20;;;14.10;;
66593;SDS011;53450;42.584;23.366;2022-07-04T02:55:37;26.65;;;14.13;;
66593;SDS011;53450;42.584;23.366;2022-07-04T02:58:29;22.20;;;14.35;;
66593;SDS011;53450;42.584;23.366;2022-07-04T03:00:55;25.15;;;15.40;;
66593;SDS011;53450;42.584;23.366;2022-07-04T03:03:21;20.15;;;14.00;;
66593;SDS011;53450;42.584;23.366;2022-07-04T03:05:46;23.20;;;14.13;;
66593;SDS011;53450;42.584;23.366;2022-07-04T03:08:12;24.85;;;13.35;;
66593;SDS011;53450;42.584;23.366;2022-07-04T03:10:38;22.55;;;14.35;;
66593;SDS011;53450;42.584;23.366;2022-07-04T03:13:03;21.00;;;13.25;;
66593;SDS011;53450;42.584;23.366;2022-07-04T03:15:29;18.23;;;14.00;;
66593;SDS011;53450;42.584;23.366;2022-07-04T03:17:55;19.33;;;13.23;;
66593;SDS011;53450;42.584;23.366;2022-07-04T03:20:20;22.90;;;13.45;;
66593;SDS011;53450;42.584;23.366;2022-07-04T03:22:46;18.20;;;13.85;;
66593;SDS011;53450;42.584;23.366;2022-07-04T03:25:11;21.30;;;12.63;;
66593;SDS011;53450;42.584;23.366;2022-07-04T03:27:39;19.27;;;13.43;;
66593;SDS011;53450;42.584;23.366;2022-07-04T03:30:05;52.15;;;15.30;;
66593;SDS011;53450;42.584;23.366;2022-07-04T03:32:31;19.70;;;13.60;;
66593;SDS011;53450;42.584;23.366;2022-07-04T03:34:57;29.25;;;13.63;;
66593;SDS011;53450;42.584;23.366;2022-07-04T03:37:22;31.20;;;13.75;;
66593;SDS011;53450;42.584;23.366;2022-07-04T03:39:48;17.98;;;13.02;;
66593;SDS011;53450;42.584;23.366;2022-07-04T03:42:14;24.45;;;13.80;;
66593;SDS011;53450;42.584;23.366;2022-07-04T03:44:39;24.05;;;13.07;;
66593;SDS011;53450;42.584;23.366;2022-07-04T03:47:05;19.55;;;13.57;;
66593;SDS011;53450;42.584;23.366;2022-07-04T03:49:30;17.40;;;13.50;;
66593;SDS011;53450;42.584;23.366;2022-07-04T03:51:56;24.42;;;13.68;;
66593;SDS011;53450;42.584;23.366;2022-07-04T03:56:51;25.92;;;13.73;;
66593;SDS011;53450;42.584;23.366;2022-07-04T03:59:17;35.47;;;14.30;;
66593;SDS011;53450;42.584;23.366;2022-07-04T04:01:42;21.13;;;12.88;;
66593;SDS011;53450;42.584;23.366;2022-07-04T04:04:08;40.20;;;14.13;;
66593;SDS011;53450;42.584;23.366;2022-07-04T04:06:52;76.10;;;15.57;;
66593;SDS011;53450;42.584;23.366;2022-07-04T04:09:17;28.02;;;12.05;;
66593;SDS011;53450;42.584;23.366;2022-07-04T04:11:44;22.58;;;12.40;;
66593;SDS011;53450;42.584;23.366;2022-07-04T04:14:10;20.13;;;11.50;;
66593;SDS011;53450;42.584;23.366;2022-07-04T04:16:37;18.45;;;12.15;;
66593;SDS011;53450;42.584;23.366;2022-07-04T04:19:03;17.25;;;12.23;;
66593;SDS011;53450;42.584;23.366;2022-07-04T04:21:29;26.00;;;12.18;;
66593;SDS011;53450;42.584;23.366;2022-07-04T04:23:54;18.98;;;10.63;;
66593;SDS011;53450;42.584;23.366;2022-07-04T04:26:20;14.65;;;9.93;;
66593;SDS011;53450;42.584;23.366;2022-07-04T04:28:45;14.15;;;9.55;;
66593;SDS011;53450;42.584;23.366;2022-07-04T04:31:11;13.38;;;8.60;;
66593;SDS011;53450;42.584;23.366;2022-07-04T04:33:37;12.15;;;8.40;;
66593;SDS011;53450;42.584;23.366;2022-07-04T04:36:02;14.43;;;8.48;;
66593;SDS011;53450;42.584;23.366;2022-07-04T04:38:28;18.15;;;8.75;;
66593;SDS011;53450;42.584;23.366;2022-07-04T04:40:54;12.90;;;8.35;;
66593;SDS011;53450;42.584;23.366;2022-07-04T04:43:19;25.20;;;8.25;;
66593;SDS011;53450;42.584;23.366;2022-07-04T04:45:45;10.95;;;9.07;;
66593;SDS011;53450;42.584;23.366;2022-07-04T04:48:10;11.52;;;7.05;;
66593;SDS011;53450;42.584;23.366;2022-07-04T04:50:36;14.65;;;7.53;;
66593;SDS011;53450;42.584;23.366;2022-07-04T04:53:01;25.50;;;7.80;;
66593;SDS011;53450;42.584;23.366;2022-07-04T04:55:27;10.98;;;7.03;;
66593;SDS011;53450;42.584;23.366;2022-07-04T04:57:53;12.95;;;6.97;;
66593;SDS011;53450;42.584;23.366;2022-07-04T05:00:19;13.27;;;7.50;;
66593;SDS011;53450;42.584;23.366;2022-07-04T05:02:44;8.82;;;6.70;;
66593;SDS011;53450;42.584;23.366;2022-07-04T05:05:10;16.63;;;8.00;;
66593;SDS011;53450;42.584;23.366;2022-07-04T05:07:35;16.30;;;8.05;;
66593;SDS011;53450;42.584;23.366;2022-07-04T05:10:02;11.27;;;7.50;;
66593;SDS011;53450;42.584;23.366;2022-07-04T05:12:28;12.23;;;7.68;;
66593;SDS011;53450;42.584;23.366;2022-07-04T05:14:54;10.15;;;7.22;;
66593;SDS011;53450;42.584;23.366;2022-07-04T05:17:20;19.60;;;8.50;;
66593;SDS011;53450;42.584;23.366;2022-07-04T05:19:46;18.25;;;7.57;;
66593;SDS011;53450;42.584;23.366;2022-07-04T05:22:12;23.63;;;7.30;;
66593;SDS011;53450;42.584;23.366;2022-07-04T05:24:38;19.92;;;7.53;;
66593;SDS011;53450;42.584;23.366;2022-07-04T05:27:05;19.30;;;6.93;;
66593;SDS011;53450;42.584;23.366;2022-07-04T05:29:31;17.20;;;7.70;;
66593;SDS011;53450;42.584;23.366;2022-07-04T05:31:57;8.85;;;7.30;;
66593;SDS011;53450;42.584;23.366;2022-07-04T05:34:22;17.58;;;7.32;;
66593;SDS011;53450;42.584;23.366;2022-07-04T05:36:48;15.32;;;6.68;;
66593;SDS011;53450;42.584;23.366;2022-07-04T05:39:14;16.40;;;7.60;;
66593;SDS011;53450;42.584;23.366;2022-07-04T05:41:39;24.85;;;7.82;;
66593;SDS011;53450;42.584;23.366;2022-07-04T05:44:05;13.52;;;7.53;;
66593;SDS011;53450;42.584;23.366;2022-07-04T05:46:31;10.80;;;7.65;;
66593;SDS011;53450;42.584;23.366;2022-07-04T05:48:56;12.13;;;7.28;;
66593;SDS011;53450;42.584;23.366;2022-07-04T05:51:22;10.23;;;7.50;;
66593;SDS011;53450;42.584;23.366;2022-07-04T05:53:48;11.05;;;6.90;;
66593;SDS011;53450;42.584;23.366;2022-07-04T05:56:15;12.80;;;7.47;;
66593;SDS011;53450;42.584;23.366;2022-07-04T05:58:40;11.38;;;7.30;;
66593;SDS011;53450;42.584;23.366;2022-07-04T06:01:06;12.52;;;7.05;;
66593;SDS011;53450;42.584;23.366;2022-07-04T06:03:34;13.25;;;7.88;;
66593;SDS011;53450;42.584;23.366;2022-07-04T06:06:02;9.68;;;7.43;;
66593;SDS011;53450;42.584;23.366;2022-07-04T06:08:31;13.73;;;6.95;;
66593;SDS011;53450;42.584;23.366;2022-07-04T06:10:56;15.35;;;6.22;;
66593;SDS011;53450;42.584;23.366;2022-07-04T06:13:22;15.10;;;6.60;;
66593;SDS011;53450;42.584;23.366;2022-07-04T06:15:48;15.63;;;6.57;;
66593;SDS011;53450;42.584;23.366;2022-07-04T06:18:13;8.35;;;6.38;;
66593;SDS011;53450;42.584;23.366;2022-07-04T06:20:40;15.18;;;6.88;;
66593;SDS011;53450;42.584;23.366;2022-07-04T06:23:06;23.45;;;11.57;;
66593;SDS011;53450;42.584;23.366;2022-07-04T06:25:31;21.55;;;7.82;;
66593;SDS011;53450;42.584;23.366;2022-07-04T06:27:57;16.33;;;7.45;;
66593;SDS011;53450;42.584;23.366;2022-07-04T06:30:24;13.20;;;6.68;;
66593;SDS011;53450;42.584;23.366;2022-07-04T06:32:51;18.50;;;7.00;;
66593;SDS011;53450;42.584;23.366;2022-07-04T06:35:20;13.30;;;7.05;;
66593;SDS011;53450;42.584;23.366;2022-07-04T06:38:06;18.85;;;6.45;;
66593;SDS011;53450;42.584;23.366;2022-07-04T06:40:32;22.58;;;10.18;;
66593;SDS011;53450;42.584;23.366;2022-07-04T06:42:59;13.65;;;7.00;;
66593;SDS011;53450;42.584;23.366;2022-07-04T06:45:25;16.92;;;7.25;;
66593;SDS011;53450;42.584;23.366;2022-07-04T06:47:51;12.85;;;7.15;;
66593;SDS011;53450;42.584;23.366;2022-07-04T06:50:17;13.13;;;7.38;;
66593;SDS011;53450;42.584;23.366;2022-07-04T06:52:43;14.07;;;6.65;;
66593;SDS011;53450;42.584;23.366;2022-07-04T06:56:50;10.63;;;6.95;;
66593;SDS011;53450;42.584;23.366;2022-07-04T06:59:16;17.25;;;7.18;;
66593;SDS011;53450;42.584;23.366;2022-07-04T07:01:42;10.75;;;8.13;;
66593;SDS011;53450;42.584;23.366;2022-07-04T07:04:08;14.60;;;8.10;;
66593;SDS011;53450;42.584;23.366;2022-07-04T07:06:33;17.77;;;7.78;;
66593;SDS011;53450;42.584;23.366;2022-07-04T07:08:59;15.15;;;7.22;;
66593;SDS011;53450;42.584;23.366;2022-07-04T07:11:49;15.10;;;7.27;;
66593;SDS011;53450;42.584;23.366;2022-07-04T07:14:15;13.75;;;6.93;;
66593;SDS011;53450;42.584;23.366;2022-07-04T07:18:57;13.88;;;8.05;;
66593;SDS011;53450;42.584;23.366;2022-07-04T07:21:23;7.97;;;6.63;;
66593;SDS011;53450;42.584;23.366;2022-07-04T07:23:49;16.20;;;8.95;;
66593;SDS011;53450;42.584;23.366;2022-07-04T07:26:14;19.35;;;7.40;;
66593;SDS011;53450;42.584;23.366;2022-07-04T07:28:40;10.02;;;7.38;;
66593;SDS011;53450;42.584;23.366;2022-07-04T07:31:06;29.70;;;7.30;;
66593;SDS011;53450;42.584;23.366;2022-07-04T07:33:31;11.82;;;6.95;;
66593;SDS011;53450;42.584;23.366;2022-07-04T07:35:57;22.48;;;10.23;;
66593;SDS011;53450;42.584;23.366;2022-07-04T07:38:22;12.60;;;7.85;;
66593;SDS011;53450;42.584;23.366;2022-07-04T07:40:48;12.80;;;7.68;;
66593;SDS011;53450;42.584;23.366;2022-07-04T07:43:14;13.45;;;7.63;;
66593;SDS011;53450;42.584;23.366;2022-07-04T07:45:39;12.60;;;8.52;;
66593;SDS011;53450;42.584;23.366;2022-07-04T07:48:05;14.20;;;6.93;;
66593;SDS011;53450;42.584;23.366;2022-07-04T07:50:31;7.93;;;7.13;;
66593;SDS011;53450;42.584;23.366;2022-07-04T07:52:57;14.57;;;8.10;;
66593;SDS011;53450;42.584;23.366;2022-07-04T07:55:23;11.98;;;8.55;;
66593;SDS011;53450;42.584;23.366;2022-07-04T07:57:48;12.88;;;8.18;;
66593;SDS011;53450;42.584;23.366;2022-07-04T08:00:16;11.23;;;7.82;;
66593;SDS011;53450;42.584;23.366;2022-07-04T08:02:42;17.95;;;7.75;;
66593;SDS011;53450;42.584;23.366;2022-07-04T08:05:26;15.57;;;8.55;;
66593;SDS011;53450;42.584;23.366;2022-07-04T08:07:51;16.85;;;7.78;;
66593;SDS011;53450;42.584;23.366;2022-07-04T08:10:17;8.40;;;7.60;;
66593;SDS011;53450;42.584;23.366;2022-07-04T08:12:43;10.77;;;7.40;;
66593;SDS011;53450;42.584;23.366;2022-07-04T08:15:08;12.20;;;8.07;;
66593;SDS011;53450;42.584;23.366;2022-07-04T08:17:34;13.38;;;7.82;;
66593;SDS011;53450;42.584;23.366;2022-07-04T08:20:01;18.38;;;8.75;;
66593;SDS011;53450;42.584;23.366;2022-07-04T08:22:29;16.08;;;7.85;;
66593;SDS011;53450;42.584;23.366;2022-07-04T08:24:55;17.60;;;7.90;;
66593;SDS011;53450;42.584;23.366;2022-07-04T08:27:21;10.70;;;7.57;;
66593;SDS011;53450;42.584;23.366;2022-07-04T08:29:50;24.25;;;8.00;;
66593;SDS011;53450;42.584;23.366;2022-07-04T08:32:15;10.95;;;7.43;;
66593;SDS011;53450;42.584;23.366;2022-07-04T08:34:41;13.88;;;7.97;;
66593;SDS011;53450;42.584;23.366;2022-07-04T08:37:08;16.15;;;9.35;;
66593;SDS011;53450;42.584;23.366;2022-07-04T08:39:34;14.15;;;8.45;;
66593;SDS011;53450;42.584;23.366;2022-07-04T08:42:01;21.75;;;8.02;;
66593;SDS011;53450;42.584;23.366;2022-07-04T08:44:30;13.48;;;7.95;;
66593;SDS011;53450;42.584;23.366;2022-07-04T08:46:58;16.40;;;8.73;;
66593;SDS011;53450;42.584;23.366;2022-07-04T08:49:27;17.00;;;7.32;;
66593;SDS011;53450;42.584;23.366;2022-07-04T08:52:01;18.40;;;8.10;;
66593;SDS011;53450;42.584;23.366;2022-07-04T08:54:29;10.82;;;8.55;;
66593;SDS011;53450;42.584;23.366;2022-07-04T08:57:15;10.48;;;7.65;;
66593;SDS011;53450;42.584;23.366;2022-07-04T08:59:59;11.23;;;8.48;;
66593;SDS011;53450;42.584;23.366;2022-07-04T09:02:28;11.88;;;7.15;;
66593;SDS011;53450;42.584;23.366;2022-07-04T09:04:54;11.98;;;7.43;;
66593;SDS011;53450;42.584;23.366;2022-07-04T09:07:19;11.70;;;7.30;;
66593;SDS011;53450;42.584;23.366;2022-07-04T09:09:46;9.10;;;7.20;;
66593;SDS011;53450;42.584;23.366;2022-07-04T09:12:12;9.90;;;7.10;;
66593;SDS011;53450;42.584;23.366;2022-07-04T09:14:38;17.33;;;7.20;;
66593;SDS011;53450;42.584;23.366;2022-07-04T09:17:05;13.23;;;7.43;;
66593;SDS011;53450;42.584;23.366;2022-07-04T09:19:31;12.40;;;8.30;;
66593;SDS011;53450;42.584;23.366;2022-07-04T09:21:58;13.15;;;7.50;;
66593;SDS011;53450;42.584;23.366;2022-07-04T09:24:52;11.18;;;7.68;;
66593;SDS011;53450;42.584;23.366;2022-07-04T09:27:33;15.25;;;7.60;;
66593;SDS011;53450;42.584;23.366;2022-07-04T09:29:59;10.90;;;8.38;;
66593;SDS011;53450;42.584;23.366;2022-07-04T09:35:08;13.35;;;7.60;;
66593;SDS011;53450;42.584;23.366;2022-07-04T09:37:55;8.13;;;7.32;;
66593;SDS011;53450;42.584;23.366;2022-07-04T09:40:34;15.25;;;7.60;;
66593;SDS011;53450;42.584;23.366;2022-07-04T09:43:22;10.18;;;7.47;;
66593;SDS011;53450;42.584;23.366;2022-07-04T09:45:55;14.02;;;7.50;;
66593;SDS011;53450;42.584;23.366;2022-07-04T09:48:26;14.48;;;7.90;;
66593;SDS011;53450;42.584;23.366;2022-07-04T09:51:12;19.25;;;8.57;;
66593;SDS011;53450;42.584;23.366;2022-07-04T09:53:37;11.85;;;7.53;;
66593;SDS011;53450;42.584;23.366;2022-07-04T09:56:03;14.10;;;7.85;;
66593;SDS011;53450;42.584;23.366;2022-07-04T09:58:29;9.75;;;7.40;;
66593;SDS011;53450;42.584;23.366;2022-07-04T10:00:58;11.73;;;7.53;;
66593;SDS011;53450;42.584;23.366;2022-07-04T10:03:25;12.63;;;8.25;;
66593;SDS011;53450;42.584;23.366;2022-07-04T10:06:02;16.48;;;7.68;;
66593;SDS011;53450;42.584;23.366;2022-07-04T10:08:41;12.35;;;8.07;;
66593;SDS011;53450;42.584;23.366;2022-07-04T10:11:08;10.50;;;7.38;;
66593;SDS011;53450;42.584;23.366;2022-07-04T10:13:34;50.85;;;9.65;;
66593;SDS011;53450;42.584;23.366;2022-07-04T10:16:00;13.05;;;7.80;;
66593;SDS011;53450;42.584;23.366;2022-07-04T10:18:26;14.35;;;8.02;;
66593;SDS011;53450;42.584;23.366;2022-07-04T10:20:52;12.13;;;7.55;;
66593;SDS011;53450;42.584;23.366;2022-07-04T10:23:20;12.07;;;8.20;;
66593;SDS011;53450;42.584;23.366;2022-07-04T10:25:50;18.05;;;7.60;;
66593;SDS011;53450;42.584;23.366;2022-07-04T10:28:17;18.98;;;8.60;;
66593;SDS011;53450;42.584;23.366;2022-07-04T10:30:45;14.40;;;7.55;;
66593;SDS011;53450;42.584;23.366;2022-07-04T10:33:13;45.33;;;8.73;;
66593;SDS011;53450;42.584;23.366;2022-07-04T10:35:47;14.00;;;8.57;;
66593;SDS011;53450;42.584;23.366;2022-07-04T10:38:20;20.58;;;7.13;;
66593;SDS011;53450;42.584;23.366;2022-07-04T10:43:35;9.82;;;7.35;;
66593;SDS011;53450;42.584;23.366;2022-07-04T10:48:31;11.63;;;7.50;;
66593;SDS011;53450;42.584;23.366;2022-07-04T10:51:04;15.13;;;7.28;;
66593;SDS011;53450;42.584;23.366;2022-07-04T10:56:53;12.48;;;7.15;;
66593;SDS011;53450;42.584;23.366;2022-07-04T10:59:26;10.80;;;7.18;;
66593;SDS011;53450;42.584;23.366;2022-07-04T11:04:48;12.27;;;7.72;;
66593;SDS011;53450;42.584;23.366;2022-07-04T11:13:01;15.63;;;8.32;;
66593;SDS011;53450;42.584;23.366;2022-07-04T11:17:57;9.45;;;7.43;;
66593;SDS011;53450;42.584;23.366;2022-07-04T11:20:28;16.40;;;7.68;;
66593;SDS011;53450;42.584;23.366;2022-07-04T11:25:33;11.32;;;7.35;;
66593;SDS011;53450;42.584;23.366;2022-07-04T11:30:51;20.60;;;8.70;;
66593;SDS011;53450;42.584;23.366;2022-07-04T11:33:22;13.85;;;8.43;;
66593;SDS011;53450;42.584;23.366;2022-07-04T11:38:44;9.38;;;7.25;;
66593;SDS011;53450;42.584;23.366;2022-07-04T11:41:10;10.35;;;6.82;;
66593;SDS011;53450;42.584;23.366;2022-07-04T11:43:54;12.75;;;7.18;;
66593;SDS011;53450;42.584;23.366;2022-07-04T11:46:39;13.32;;;7.63;;
66593;SDS011;53450;42.584;23.366;2022-07-04T11:49:08;84.38;;;9.60;;
66593;SDS011;53450;42.584;23.366;2022-07-04T11:51:41;15.35;;;7.85;;
66593;SDS011;53450;42.584;23.366;2022-07-04T11:54:11;14.38;;;7.50;;
66593;SDS011;53450;42.584;23.366;2022-07-04T11:56:37;13.98;;;6.63;;
66593;SDS011;53450;42.584;23.366;2022-07-04T11:59:12;18.40;;;7.22;;
66593;SDS011;53450;42.584;23.366;2022-07-04T12:01:40;16.92;;;6.90;;
66593;SDS011;53450;42.584;23.366;2022-07-04T12:04:17;28.63;;;9.05;;
66593;SDS011;53450;42.584;23.366;2022-07-04T12:06:47;16.33;;;7.93;;
66593;SDS011;53450;42.584;23.366;2022-07-04T12:09:14;13.73;;;7.57;;
66593;SDS011;53450;42.584;23.366;2022-07-04T12:11:58;12.65;;;7.65;;
66593;SDS011;53450;42.584;23.366;2022-07-04T12:14:25;21.02;;;7.70;;
66593;SDS011;53450;42.584;23.366;2022-07-04T12:19:37;14.77;;;7.85;;
66593;SDS011;53450;42.584;23.366;2022-07-04T12:22:03;9.35;;;7.45;;
66593;SDS011;53450;42.584;23.366;2022-07-04T12:24:39;12.10;;;7.60;;
66593;SDS011;53450;42.584;23.366;2022-07-04T12:27:06;9.70;;;7.63;;
66593;SDS011;53450;42.584;23.366;2022-07-04T12:29:45;15.60;;;7.38;;
66593;SDS011;53450;42.584;23.366;2022-07-04T12:32:12;15.45;;;7.40;;
66593;SDS011;53450;42.584;23.366;2022-07-04T12:34:39;12.43;;;7.45;;
66593;SDS011;53450;42.584;23.366;2022-07-04T12:37:06;9.68;;;7.38;;
66593;SDS011;53450;42.584;23.366;2022-07-04T12:39:34;14.13;;;7.15;;
66593;SDS011;53450;42.584;23.366;2022-07-04T12:44:34;13.07;;;7.18;;
66593;SDS011;53450;42.584;23.366;2022-07-04T12:47:00;20.02;;;7.43;;
66593;SDS011;53450;42.584;23.366;2022-07-04T12:49:26;16.45;;;7.75;;
66593;SDS011;53450;42.584;23.366;2022-07-04T12:51:51;13.75;;;7.95;;
66593;SDS011;53450;42.584;23.366;2022-07-04T12:54:17;12.27;;;7.63;;
66593;SDS011;53450;42.584;23.366;2022-07-04T12:56:43;9.02;;;7.43;;
66593;SDS011;53450;42.584;23.366;2022-07-04T12:59:14;14.18;;;7.60;;
66593;SDS011;53450;42.584;23.366;2022-07-04T13:01:44;13.15;;;7.13;;
66593;SDS011;53450;42.584;23.366;2022-07-04T13:04:10;12.95;;;7.53;;
66593;SDS011;53450;42.584;23.366;2022-07-04T13:06:37;10.02;;;7.15;;
66593;SDS011;53450;42.584;23.366;2022-07-04T13:09:03;12.50;;;7.80;;
66593;SDS011;53450;42.584;23.366;2022-07-04T13:11:32;11.23;;;8.00;;
66593;SDS011;53450;42.584;23.366;2022-07-04T13:14:16;12.10;;;7.47;;
66593;SDS011;53450;42.584;23.366;2022-07-04T13:16:42;12.02;;;7.50;;
66593;SDS011;53450;42.584;23.366;2022-07-04T13:19:08;12.07;;;7.47;;
66593;SDS011;53450;42.584;23.366;2022-07-04T13:21:33;15.80;;;7.30;;
66593;SDS011;53450;42.584;23.366;2022-07-04T13:23:59;14.45;;;7.95;;
66593;SDS011;53450;42.584;23.366;2022-07-04T13:26:24;12.00;;;10.15;;
66593;SDS011;53450;42.584;23.366;2022-07-04T13:28:50;30.40;;;8.10;;
66593;SDS011;53450;42.584;23.366;2022-07-04T13:31:16;25.65;;;7.97;;
66593;SDS011;53450;42.584;23.366;2022-07-04T13:33:42;15.00;;;10.10;;
66593;SDS011;53450;42.584;23.366;2022-07-04T13:36:07;45.45;;;8.52;;
66593;SDS011;53450;42.584;23.366;2022-07-04T13:38:33;11.80;;;7.05;;
66593;SDS011;53450;42.584;23.366;2022-07-04T13:40:58;12.63;;;7.47;;
66593;SDS011;53450;42.584;23.366;2022-07-04T13:43:24;31.50;;;8.48;;
66593;SDS011;53450;42.584;23.366;2022-07-04T13:45:53;16.45;;;8.07;;
66593;SDS011;53450;42.584;23.366;2022-07-04T13:48:20;16.75;;;8.43;;
66593;SDS011;53450;42.584;23.366;2022-07-04T13:50:45;11.43;;;7.65;;
66593;SDS011;53450;42.584;23.366;2022-07-04T13:53:11;9.60;;;7.25;;
66593;SDS011;53450;42.584;23.366;2022-07-04T13:55:36;13.75;;;8.07;;
66593;SDS011;53450;42.584;23.366;2022-07-04T13:58:05;17.02;;;8.18;;
66593;SDS011;53450;42.584;23.366;2022-07-04T14:00:33;12.32;;;8.23;;
66593;SDS011;53450;42.584;23.366;2022-07-04T14:03:00;14.32;;;7.88;;
66593;SDS011;53450;42.584;23.366;2022-07-04T14:05:26;14.80;;;7.68;;
66593;SDS011;53450;42.584;23.366;2022-07-04T14:07:53;12.70;;;7.88;;
66593;SDS011;53450;42.584;23.366;2022-07-04T14:10:19;12.43;;;7.93;;
66593;SDS011;53450;42.584;23.366;2022-07-04T14:12:45;14.18;;;7.82;;
66593;SDS011;53450;42.584;23.366;2022-07-04T14:15:11;14.05;;;8.57;;
66593;SDS011;53450;42.584;23.366;2022-07-04T14:17:37;13.13;;;7.75;;
66593;SDS011;53450;42.584;23.366;2022-07-04T14:20:04;16.58;;;8.32;;
66593;SDS011;53450;42.584;23.366;2022-07-04T14:22:32;11.40;;;8.48;;
66593;SDS011;53450;42.584;23.366;2022-07-04T14:24:58;12.73;;;7.88;;
66593;SDS011;53450;42.584;23.366;2022-07-04T14:27:24;16.45;;;7.45;;
66593;SDS011;53450;42.584;23.366;2022-07-04T14:29:50;11.70;;;7.90;;
66593;SDS011;53450;42.584;23.366;2022-07-04T14:32:15;12.65;;;7.60;;
66593;SDS011;53450;42.584;23.366;2022-07-04T14:34:41;12.77;;;7.95;;
66593;SDS011;53450;42.584;23.366;2022-07-04T14:37:07;16.25;;;8.20;;
66593;SDS011;53450;42.584;23.366;2022-07-04T14:39:32;25.83;;;7.97;;
66593;SDS011;53450;42.584;23.366;2022-07-04T14:41:58;14.30;;;8.93;;
66593;SDS011;53450;42.584;23.366;2022-07-04T14:44:24;13.27;;;7.47;;
66593;SDS011;53450;42.584;23.366;2022-07-04T14:46:49;12.57;;;8.15;;
66593;SDS011;53450;42.584;23.366;2022-07-04T14:49:15;20.77;;;8.60;;
66593;SDS011;53450;42.584;23.366;2022-07-04T14:51:41;18.15;;;8.45;;
66593;SDS011;53450;42.584;23.366;2022-07-04T14:54:07;12.30;;;9.75;;
66593;SDS011;53450;42.584;23.366;2022-07-04T14:56:34;18.10;;;9.13;;
66593;SDS011;53450;42.584;23.366;2022-07-04T14:59:00;17.13;;;7.90;;
66593;SDS011;53450;42.584;23.366;2022-07-04T15:01:26;19.92;;;8.40;;
66593;SDS011;53450;42.584;23.366;2022-07-04T15:03:52;18.08;;;8.38;;
66593;SDS011;53450;42.584;23.366;2022-07-04T15:06:19;16.20;;;8.10;;